createdAt,value
2019-02-08T00:01:18.404Z,2.60
2019-02-08T00:03:45.959Z,2.10
2019-02-08T00:06:13.427Z,2.50
2019-02-08T00:08:40.882Z,1.63
2019-02-08T00:11:08.363Z,1.97
2019-02-08T00:13:36.630Z,2.07
2019-02-08T00:16:04.873Z,2.87
2019-02-08T00:18:32.369Z,1.80
2019-02-08T00:21:00.005Z,1.83
2019-02-08T00:23:27.597Z,2.20
2019-02-08T00:25:54.968Z,1.73
2019-02-08T00:28:22.525Z,2.23
2019-02-08T00:30:49.992Z,1.87
2019-02-08T00:33:18.974Z,2.25
2019-02-08T00:35:46.554Z,1.93
2019-02-08T00:38:14.012Z,2.20
2019-02-08T00:40:42.266Z,2.40
2019-02-08T00:43:09.729Z,2.10
2019-02-08T00:45:37.312Z,2.00
2019-02-08T00:48:04.773Z,1.97
2019-02-08T00:50:32.228Z,2.07
2019-02-08T00:52:59.684Z,2.07
2019-02-08T00:55:27.146Z,2.10
2019-02-08T00:57:55.447Z,1.73
2019-02-08T01:00:22.918Z,2.07
2019-02-08T01:02:50.455Z,1.90
2019-02-08T01:05:20.629Z,2.03
2019-02-08T01:07:48.857Z,2.23
2019-02-08T01:10:30.790Z,1.90
2019-02-08T01:12:59.913Z,2.20
2019-02-08T01:15:27.371Z,2.20
2019-02-08T01:17:54.835Z,2.50
2019-02-08T01:20:22.285Z,2.30
2019-02-08T01:22:50.535Z,1.70
2019-02-08T01:25:18.089Z,1.70
2019-02-08T01:27:45.569Z,1.90
2019-02-08T01:30:22.989Z,1.73
2019-02-08T01:32:50.441Z,1.90
2019-02-08T01:35:18.690Z,1.90
2019-02-08T01:37:46.241Z,1.97
2019-02-08T01:40:14.531Z,1.80
2019-02-08T01:42:42.092Z,1.63
2019-02-08T01:45:09.598Z,2.03
2019-02-08T01:47:37.068Z,1.80
2019-02-08T01:50:04.589Z,1.70
2019-02-08T01:52:33.582Z,2.00
2019-02-08T01:55:01.033Z,2.00
2019-02-08T01:57:28.498Z,1.47
2019-02-08T01:59:55.962Z,1.80
2019-02-08T02:02:23.431Z,2.00
2019-02-08T02:04:51.651Z,1.80
2019-02-08T02:07:19.987Z,2.17
2019-02-08T02:09:47.444Z,1.70
2019-02-08T02:12:14.884Z,1.90
2019-02-08T02:14:42.362Z,2.03
2019-02-08T02:17:09.821Z,2.17
2019-02-08T02:19:37.281Z,2.10
2019-02-08T02:22:04.759Z,2.10
2019-02-08T02:24:32.986Z,1.60
2019-02-08T02:27:00.448Z,1.90
2019-02-08T02:29:27.905Z,1.47
2019-02-08T02:31:55.425Z,2.20
2019-02-08T02:34:22.988Z,2.07
2019-02-08T02:36:50.541Z,2.17
2019-02-08T02:39:18.020Z,1.80
2019-02-08T02:41:45.482Z,1.80
2019-02-08T02:44:13.753Z,1.50
2019-02-08T02:46:41.249Z,1.93
2019-02-08T02:49:09.469Z,1.97
2019-02-08T02:51:36.950Z,1.67
2019-02-08T02:54:05.173Z,2.10
2019-02-08T02:56:32.775Z,2.43
2019-02-08T02:59:00.241Z,1.80
2019-02-08T03:01:27.707Z,2.30
2019-02-08T03:03:55.171Z,1.90
2019-02-08T03:06:22.634Z,1.93
2019-02-08T03:08:50.109Z,1.60
2019-02-08T03:11:17.671Z,1.67
2019-02-08T03:13:45.134Z,1.67
2019-02-08T03:16:12.596Z,2.30
2019-02-08T03:18:40.177Z,2.00
2019-02-08T03:21:08.401Z,1.50
2019-02-08T03:23:35.909Z,2.20
2019-02-08T03:26:03.793Z,2.08
2019-02-08T03:28:32.032Z,1.77
2019-02-08T03:30:59.519Z,2.40
2019-02-08T03:33:27.842Z,2.63
2019-02-08T03:35:55.235Z,2.63
2019-02-08T03:38:22.683Z,2.83
2019-02-08T03:40:50.180Z,2.93
2019-02-08T03:43:17.617Z,2.80
2019-02-08T03:45:45.841Z,2.77
2019-02-08T03:48:14.069Z,3.27
2019-02-08T03:50:41.535Z,2.97
2019-02-08T03:53:08.995Z,3.70
2019-02-08T03:55:36.492Z,3.80
2019-02-08T03:58:03.945Z,3.33
2019-02-08T04:00:31.907Z,4.23
2019-02-08T04:02:59.389Z,4.20
2019-02-08T04:05:27.802Z,3.63
2019-02-08T04:07:56.059Z,3.57
2019-02-08T04:10:23.534Z,4.17
2019-02-08T04:12:51.770Z,4.00
2019-02-08T04:15:26.159Z,3.50
2019-02-08T04:17:53.679Z,4.30
2019-02-08T04:20:23.560Z,3.60
2019-02-08T04:22:51.051Z,3.93
2019-02-08T04:25:18.527Z,3.70
2019-02-08T04:27:46.077Z,3.70
2019-02-08T04:30:26.159Z,3.90
2019-02-08T04:32:54.384Z,4.13
2019-02-08T04:35:21.956Z,3.63
2019-02-08T04:37:49.411Z,4.07
2019-02-08T04:40:18.636Z,4.20
2019-02-08T04:42:47.236Z,4.37
2019-02-08T04:45:14.781Z,4.27
2019-02-08T04:47:42.221Z,4.93
2019-02-08T04:50:09.687Z,4.20
2019-02-08T04:52:37.133Z,4.53
2019-02-08T04:55:04.615Z,3.57
2019-02-08T04:57:32.198Z,4.20
2019-02-08T04:59:59.759Z,4.80
2019-02-08T05:02:27.326Z,3.97
2019-02-08T05:04:54.777Z,4.07
2019-02-08T05:07:22.337Z,4.00
2019-02-08T05:09:49.905Z,3.97
2019-02-08T05:12:17.367Z,3.57
2019-02-08T05:14:44.840Z,3.30
2019-02-08T05:17:12.378Z,3.23
2019-02-08T05:19:39.863Z,3.63
2019-02-08T05:22:07.340Z,3.37
2019-02-08T05:24:35.574Z,3.87
2019-02-08T05:27:04.451Z,3.60
2019-02-08T05:29:31.924Z,3.47
2019-02-08T05:31:59.424Z,4.13
2019-02-08T05:34:27.657Z,3.30
2019-02-08T05:36:55.166Z,3.57
2019-02-08T05:39:22.720Z,3.90
2019-02-08T05:41:50.179Z,3.87
2019-02-08T05:44:17.639Z,4.30
2019-02-08T05:46:45.094Z,4.03
2019-02-08T05:49:12.669Z,4.00
2019-02-08T05:51:40.127Z,3.70
2019-02-08T05:54:07.696Z,3.77
2019-02-08T05:56:35.171Z,4.20
2019-02-08T05:59:03.557Z,4.23
2019-02-08T06:01:31.109Z,4.17
2019-02-08T06:03:58.559Z,4.37
2019-02-08T06:06:26.133Z,4.33
2019-02-08T06:08:54.362Z,4.10
2019-02-08T06:11:21.842Z,4.20
2019-02-08T06:13:49.303Z,4.60
2019-02-08T06:16:16.770Z,5.30
2019-02-08T06:18:44.231Z,5.13
2019-02-08T06:21:11.719Z,4.67
2019-02-08T06:23:39.186Z,5.00
2019-02-08T06:26:11.517Z,4.73
2019-02-08T06:28:38.978Z,4.73
2019-02-08T06:31:06.478Z,5.37
2019-02-08T06:33:33.938Z,5.17
2019-02-08T06:36:01.409Z,5.13
2019-02-08T06:38:28.875Z,4.93
2019-02-08T06:40:56.452Z,5.37
2019-02-08T06:43:24.676Z,4.73
2019-02-08T06:45:52.165Z,5.03
2019-02-08T06:48:19.634Z,5.17
2019-02-08T06:50:47.188Z,4.70
2019-02-08T06:53:14.659Z,5.03
2019-02-08T06:55:42.137Z,5.00
2019-02-08T06:58:24.466Z,5.20
2019-02-08T07:00:57.519Z,4.43
2019-02-08T07:03:24.985Z,5.37
2019-02-08T07:05:58.433Z,4.67
2019-02-08T07:08:25.897Z,4.83
2019-02-08T07:11:08.254Z,4.37
2019-02-08T07:13:51.483Z,5.30
2019-02-08T07:16:19.704Z,5.13
2019-02-08T07:18:48.559Z,5.03
2019-02-08T07:24:09.298Z,6.82
2019-02-08T07:26:42.494Z,6.00
2019-02-08T07:29:10.888Z,4.73
2019-02-08T07:31:44.114Z,5.60
2019-02-08T07:34:30.325Z,5.40
2019-02-08T07:37:15.400Z,5.30
2019-02-08T07:39:49.326Z,5.20
2019-02-08T07:42:18.157Z,5.73
2019-02-08T07:44:47.425Z,5.00
2019-02-08T07:47:16.460Z,4.77
2019-02-08T07:49:47.879Z,5.30
2019-02-08T07:52:30.487Z,4.72
2019-02-08T07:54:59.580Z,4.83
2019-02-08T07:57:30.964Z,4.97
2019-02-08T08:00:02.013Z,4.90
2019-02-08T08:02:37.988Z,4.80
2019-02-08T08:05:11.058Z,5.43
2019-02-08T08:07:39.444Z,5.30
2019-02-08T08:10:13.445Z,5.27
2019-02-08T08:12:42.481Z,5.57
2019-02-08T08:15:15.274Z,5.50
2019-02-08T08:17:46.214Z,4.47
2019-02-08T08:23:27.066Z,7.97
2019-02-08T08:25:54.524Z,5.97
2019-02-08T08:28:22.754Z,4.83
2019-02-08T08:31:00.120Z,4.63
2019-02-08T08:33:39.308Z,5.63
2019-02-08T08:36:12.634Z,4.93
2019-02-08T08:38:49.481Z,4.93
2019-02-08T08:44:29.878Z,7.15
2019-02-08T08:47:04.777Z,5.57
2019-02-08T08:49:50.830Z,5.47
2019-02-08T08:52:18.306Z,4.97
2019-02-08T08:57:50.981Z,6.37
2019-02-08T09:00:39.020Z,5.10
2019-02-08T09:03:18.946Z,4.67
2019-02-08T09:05:52.887Z,4.40
2019-02-08T09:08:29.090Z,4.27
2019-02-08T09:11:03.214Z,4.20
2019-02-08T09:13:39.619Z,4.47
2019-02-08T09:19:22.733Z,6.32
2019-02-08T09:21:53.649Z,4.90
2019-02-08T09:24:31.683Z,4.10
2019-02-08T09:27:14.933Z,4.20
2019-02-08T09:29:44.742Z,4.37
2019-02-08T09:35:17.507Z,5.70
2019-02-08T09:37:53.470Z,4.73
2019-02-08T09:40:27.045Z,4.63
2019-02-08T09:42:56.985Z,4.07
2019-02-08T09:45:27.110Z,3.93
2019-02-08T09:48:01.213Z,4.33
2019-02-08T09:50:39.982Z,3.93
2019-02-08T09:53:16.619Z,4.37
2019-02-08T09:56:09.780Z,4.20
2019-02-08T09:58:43.261Z,5.60
2019-02-08T10:01:26.556Z,4.50
2019-02-08T10:03:56.403Z,4.00
2019-02-08T10:09:30.801Z,5.60
2019-02-08T10:12:17.017Z,4.70
2019-02-08T10:14:56.348Z,3.90
2019-02-08T10:17:32.492Z,3.90
2019-02-08T10:20:11.668Z,3.67
2019-02-08T10:23:00.893Z,4.07
2019-02-08T10:26:05.152Z,3.50
2019-02-08T10:28:32.644Z,3.70
2019-02-08T10:31:05.642Z,4.73
2019-02-08T10:33:52.863Z,3.87
2019-02-08T10:36:48.053Z,4.40
2019-02-08T10:39:26.006Z,3.33
2019-02-08T10:41:59.106Z,3.67
2019-02-08T10:47:26.217Z,5.43
2019-02-08T10:50:15.468Z,5.37
2019-02-08T10:52:50.607Z,3.93
2019-02-08T10:55:54.595Z,4.50
2019-02-08T10:58:41.757Z,4.03
2019-02-08T11:01:18.697Z,3.53
2019-02-08T11:04:10.592Z,4.20
2019-02-08T11:06:46.823Z,3.97
2019-02-08T11:09:21.893Z,3.87
2019-02-08T11:12:05.014Z,3.80
2019-02-08T11:14:34.338Z,3.47
2019-02-08T11:17:10.517Z,3.63
2019-02-08T11:19:38.253Z,3.87
2019-02-08T11:22:05.810Z,3.60
2019-02-08T11:24:33.281Z,3.33
2019-02-08T11:27:00.734Z,3.57
2019-02-08T11:29:28.288Z,3.90
2019-02-08T11:31:55.770Z,3.43
2019-02-08T11:34:23.225Z,3.20
2019-02-08T11:36:50.775Z,3.23
2019-02-08T11:39:18.358Z,3.37
2019-02-08T11:41:45.815Z,3.43
2019-02-08T11:44:13.376Z,3.57
2019-02-08T11:46:40.939Z,3.60
2019-02-08T11:49:08.416Z,3.23
2019-02-08T11:51:35.885Z,2.97
2019-02-08T11:54:04.464Z,3.60
2019-02-08T11:56:31.923Z,3.17
2019-02-08T11:58:59.381Z,3.40
2019-02-08T12:01:26.837Z,3.43
2019-02-08T12:03:54.302Z,3.00
2019-02-08T12:06:21.757Z,3.50
2019-02-08T12:08:49.213Z,3.60
2019-02-08T12:11:16.781Z,3.10
2019-02-08T12:13:44.245Z,3.07
2019-02-08T12:16:11.705Z,3.53
2019-02-08T12:18:39.272Z,3.67
2019-02-08T12:21:06.754Z,3.10
2019-02-08T12:23:34.295Z,3.07
2019-02-08T12:26:01.742Z,3.10
2019-02-08T12:28:29.201Z,2.93
2019-02-08T12:30:57.706Z,3.20
2019-02-08T12:33:25.163Z,2.93
2019-02-08T12:35:52.721Z,3.27
2019-02-08T12:38:20.220Z,3.37
2019-02-08T12:40:47.665Z,3.10
2019-02-08T12:43:15.118Z,3.00
2019-02-08T12:45:42.585Z,3.10
2019-02-08T12:48:10.043Z,3.10
2019-02-08T12:50:37.501Z,2.80
2019-02-08T12:53:05.790Z,2.80
2019-02-08T12:55:33.336Z,2.40
2019-02-08T12:58:00.789Z,2.47
2019-02-08T13:00:28.425Z,2.70
2019-02-08T13:02:55.870Z,2.60
2019-02-08T13:05:24.090Z,2.67
2019-02-08T13:07:51.582Z,2.80
2019-02-08T13:10:20.979Z,2.07
2019-02-08T13:12:48.432Z,2.30
2019-02-08T13:15:15.890Z,2.83
2019-02-08T13:17:44.840Z,2.57
2019-02-08T13:20:11.643Z,2.53
2019-02-08T13:22:39.215Z,2.17
2019-02-08T13:25:07.617Z,2.53
2019-02-08T13:27:35.168Z,2.70
2019-02-08T13:30:02.631Z,2.23
2019-02-08T13:32:30.185Z,2.00
2019-02-08T13:34:57.652Z,2.40
2019-02-08T13:37:25.120Z,1.90
2019-02-08T13:39:52.667Z,2.60
2019-02-08T13:42:20.133Z,1.87
2019-02-08T13:44:47.592Z,2.00
2019-02-08T13:47:15.049Z,1.97
2019-02-08T13:49:43.973Z,2.00
2019-02-08T13:52:12.201Z,2.10
2019-02-08T13:54:39.662Z,2.13
2019-02-08T13:57:07.208Z,2.47
2019-02-08T13:59:34.672Z,2.07
2019-02-08T14:02:02.128Z,2.33
2019-02-08T14:04:29.579Z,2.45
2019-02-08T14:06:57.815Z,2.27
2019-02-08T14:09:25.386Z,1.93
2019-02-08T14:11:52.838Z,2.10
2019-02-08T14:14:20.306Z,1.90
2019-02-08T14:16:47.794Z,1.97
2019-02-08T14:19:15.263Z,2.37
2019-02-08T14:21:43.500Z,1.97
2019-02-08T14:24:10.976Z,2.70
2019-02-08T14:26:38.564Z,2.10
2019-02-08T14:37:47.041Z,2.03
2019-02-08T14:40:16.392Z,1.93
2019-02-08T14:42:43.946Z,1.60
2019-02-08T14:45:11.388Z,2.03
2019-02-08T14:47:38.852Z,3.13
2019-02-08T14:50:09.772Z,2.13
2019-02-08T14:52:38.109Z,1.80
2019-02-08T14:55:05.569Z,2.30
2019-02-08T14:57:33.017Z,1.70
2019-02-08T15:00:00.632Z,1.40
2019-02-08T15:02:28.150Z,1.93
2019-02-08T15:04:55.619Z,1.80
2019-02-08T15:07:23.181Z,1.93
2019-02-08T15:09:50.628Z,2.53
2019-02-08T15:12:18.083Z,1.77
2019-02-08T15:14:45.531Z,1.67
2019-02-08T15:17:13.002Z,1.60
2019-02-08T15:19:40.464Z,2.10
2019-02-08T15:22:07.925Z,1.70
2019-02-08T15:24:35.373Z,2.20
2019-02-08T15:27:03.753Z,1.73
2019-02-08T15:29:31.265Z,1.63
2019-02-08T15:31:59.499Z,1.53
2019-02-08T15:34:26.980Z,1.50
2019-02-08T15:36:54.468Z,1.90
2019-02-08T15:39:23.659Z,1.67
2019-02-08T15:41:51.109Z,1.60
2019-02-08T15:44:18.587Z,1.97
2019-02-08T15:46:46.039Z,1.57
2019-02-08T15:49:13.499Z,2.00
2019-02-08T15:51:41.785Z,1.43
2019-02-08T15:54:09.497Z,1.70
2019-02-08T15:56:37.961Z,1.93
2019-02-08T15:59:04.471Z,1.87
2019-02-08T16:01:31.942Z,2.10
2019-02-08T16:03:59.401Z,1.70
2019-02-08T16:06:26.852Z,1.67
2019-02-08T16:08:54.421Z,1.77
2019-02-08T16:11:21.958Z,2.20
2019-02-08T16:13:49.479Z,2.17
2019-02-08T16:16:17.718Z,1.63
2019-02-08T16:18:45.207Z,3.20
2019-02-08T16:21:12.660Z,1.73
2019-02-08T16:23:41.625Z,1.80
2019-02-08T16:26:09.106Z,1.60
2019-02-08T16:28:36.574Z,1.90
2019-02-08T16:31:04.045Z,1.80
2019-02-08T16:33:32.332Z,1.33
2019-02-08T16:35:59.786Z,1.80
2019-02-08T16:38:27.248Z,1.70
2019-02-08T16:40:54.769Z,2.03
2019-02-08T16:43:22.672Z,1.70
2019-02-08T16:45:50.142Z,1.70
2019-02-08T16:48:17.605Z,1.83
2019-02-08T16:50:45.065Z,1.50
2019-02-08T16:53:12.617Z,1.70
2019-02-08T16:55:40.179Z,1.70
2019-02-08T16:58:07.632Z,1.87
2019-02-08T17:00:35.128Z,1.60
2019-02-08T17:03:04.287Z,1.53
2019-02-08T17:05:31.759Z,1.77
2019-02-08T17:07:59.246Z,1.90
2019-02-08T17:10:26.705Z,1.73
2019-02-08T17:12:54.202Z,1.60
2019-02-08T17:15:22.462Z,1.63
2019-02-08T17:17:50.019Z,1.50
2019-02-08T17:20:20.949Z,1.87
2019-02-08T17:22:49.202Z,1.90
2019-02-08T17:25:16.889Z,2.10
2019-02-08T17:27:44.332Z,1.40
2019-02-08T17:30:12.431Z,1.60
2019-02-08T17:32:39.886Z,1.70
2019-02-08T17:35:07.344Z,1.63
2019-02-08T17:37:34.904Z,1.90
2019-02-08T17:40:02.358Z,1.73
2019-02-08T17:42:29.827Z,1.60
2019-02-08T17:44:57.278Z,1.77
2019-02-08T17:47:24.717Z,1.57
2019-02-08T17:49:52.183Z,1.97
2019-02-08T17:52:19.684Z,1.90
2019-02-08T17:54:47.144Z,1.80
2019-02-08T17:57:14.615Z,1.87
2019-02-08T17:59:42.086Z,1.93
2019-02-08T18:02:09.541Z,1.87
2019-02-08T18:04:37.001Z,1.93
2019-02-08T18:07:04.461Z,1.70
2019-02-08T18:09:31.934Z,1.90
2019-02-08T18:11:59.393Z,1.90
2019-02-08T18:14:27.113Z,1.90
2019-02-08T18:16:54.572Z,2.00
2019-02-08T18:19:22.046Z,1.50
2019-02-08T18:21:49.505Z,1.77
2019-02-08T18:24:16.953Z,1.53
2019-02-08T18:26:44.455Z,1.67
2019-02-08T18:29:11.921Z,1.63
2019-02-08T18:31:40.194Z,1.93
2019-02-08T18:34:07.764Z,1.93
2019-02-08T18:36:35.233Z,1.87
2019-02-08T18:39:02.685Z,1.80
2019-02-08T18:41:30.143Z,1.80
2019-02-08T18:43:57.705Z,2.00
2019-02-08T18:46:25.158Z,1.97
2019-02-08T18:48:52.633Z,1.80
2019-02-08T18:51:20.103Z,1.77
2019-02-08T18:53:47.552Z,1.80
2019-02-08T18:56:15.107Z,1.70
2019-02-08T18:58:42.564Z,1.60
2019-02-08T19:01:10.039Z,1.90
2019-02-08T19:03:37.485Z,1.80
2019-02-08T19:06:04.968Z,1.77
2019-02-08T19:08:32.530Z,1.60
2019-02-08T19:10:59.971Z,1.93
2019-02-08T19:13:27.446Z,1.70
2019-02-08T19:15:54.902Z,1.90
2019-02-08T19:18:22.377Z,1.93
2019-02-08T19:20:49.938Z,1.87
2019-02-08T19:23:17.405Z,1.92
2019-02-08T19:25:44.965Z,1.70
2019-02-08T19:28:12.408Z,1.90
2019-02-08T19:30:40.704Z,2.00
2019-02-08T19:33:08.178Z,1.70
2019-02-08T19:35:35.640Z,1.90
2019-02-08T19:38:04.539Z,1.92
2019-02-08T19:40:33.630Z,2.03
2019-02-08T19:43:01.089Z,1.60
2019-02-08T19:45:28.645Z,1.97
2019-02-08T19:47:56.105Z,1.90
2019-02-08T19:50:25.498Z,1.87
2019-02-08T19:52:52.945Z,2.20
2019-02-08T19:55:20.444Z,2.07
2019-02-08T19:57:47.897Z,1.50
2019-02-08T20:00:19.189Z,1.80
2019-02-08T20:02:47.487Z,1.90
2019-02-08T20:05:15.006Z,2.03
2019-02-08T20:07:42.564Z,1.90
2019-02-08T20:10:12.817Z,1.90
2019-02-08T20:12:41.084Z,1.70
2019-02-08T20:15:10.270Z,1.90
2019-02-08T20:17:37.721Z,2.13
2019-02-08T20:20:06.062Z,2.43
2019-02-08T20:22:33.521Z,2.10
2019-02-08T20:25:00.977Z,2.30
2019-02-08T20:27:29.200Z,2.00
2019-02-08T20:29:56.657Z,1.80
2019-02-08T20:32:24.109Z,2.20
2019-02-08T20:34:51.557Z,2.30
2019-02-08T20:37:19.011Z,2.37
2019-02-08T20:39:46.461Z,2.00
2019-02-08T20:42:14.754Z,2.13
2019-02-08T20:44:42.252Z,1.70
2019-02-08T20:47:09.805Z,1.97
2019-02-08T20:49:37.290Z,1.80
2019-02-08T20:52:04.742Z,2.47
2019-02-08T20:54:32.201Z,1.97
2019-02-08T20:56:59.669Z,2.47
2019-02-08T20:59:27.286Z,1.57
2019-02-08T21:01:54.802Z,1.70
2019-02-08T21:04:22.358Z,1.93
2019-02-08T21:06:50.581Z,2.10
2019-02-08T21:09:18.800Z,1.70
2019-02-08T21:11:46.266Z,2.10
2019-02-08T21:14:13.746Z,2.53
2019-02-08T21:16:41.197Z,2.17
2019-02-08T21:19:08.656Z,1.90
2019-02-08T21:21:36.109Z,2.10
2019-02-08T21:24:04.793Z,1.92
2019-02-08T21:26:32.242Z,2.00
2019-02-08T21:28:59.705Z,1.80
2019-02-08T21:31:27.212Z,2.20
2019-02-08T21:33:54.783Z,2.13
2019-02-08T21:36:23.026Z,2.00
2019-02-08T21:38:50.480Z,1.97
2019-02-08T21:41:17.943Z,1.97
2019-02-08T21:43:45.392Z,1.90
2019-02-08T21:46:12.900Z,2.20
2019-02-08T21:48:40.375Z,2.40
2019-02-08T21:51:07.829Z,2.00
2019-02-08T21:53:35.293Z,2.10
2019-02-08T21:56:02.753Z,1.97
2019-02-08T21:58:32.442Z,2.20
2019-02-08T22:00:59.879Z,2.10
2019-02-08T22:03:27.345Z,2.03
2019-02-08T22:05:55.734Z,2.10
2019-02-08T22:08:23.214Z,2.50
2019-02-08T22:10:50.694Z,2.60
2019-02-08T22:13:18.276Z,2.40
2019-02-08T22:15:46.711Z,2.20
2019-02-08T22:18:15.032Z,1.83
2019-02-08T22:20:42.626Z,2.13
2019-02-08T22:23:10.867Z,2.00
2019-02-08T22:25:38.419Z,2.10
2019-02-08T22:28:09.669Z,2.10
2019-02-08T22:30:39.161Z,1.70
2019-02-08T22:33:07.536Z,2.10
2019-02-08T22:35:35.007Z,1.73
2019-02-08T22:38:02.754Z,2.17
2019-02-08T22:40:30.227Z,1.90
2019-02-08T22:42:57.809Z,1.97
2019-02-08T22:45:26.992Z,2.43
2019-02-08T22:47:55.150Z,2.30
2019-02-08T22:50:22.745Z,2.00
2019-02-08T22:52:50.209Z,2.80
2019-02-08T22:55:29.410Z,1.80
2019-02-08T22:57:56.934Z,2.30
2019-02-08T23:03:51.569Z,2.80
2019-02-08T23:06:19.401Z,2.20
2019-02-08T23:08:46.913Z,1.90
2019-02-08T23:11:14.365Z,2.17
2019-02-08T23:13:41.855Z,2.00
2019-02-08T23:16:09.310Z,2.20
2019-02-08T23:18:36.802Z,1.80
2019-02-08T23:21:04.252Z,2.00
2019-02-08T23:23:33.237Z,2.00
2019-02-08T23:26:00.808Z,2.47
2019-02-08T23:28:28.258Z,2.17
2019-02-08T23:30:55.709Z,2.03
2019-02-08T23:33:23.194Z,1.90
2019-02-08T23:35:50.659Z,2.30
2019-02-08T23:38:18.226Z,2.17
2019-02-08T23:40:45.679Z,2.10
2019-02-08T23:43:13.141Z,2.10
2019-02-08T23:45:40.610Z,2.23
2019-02-08T23:48:08.057Z,2.23
2019-02-08T23:50:35.534Z,2.33
2019-02-08T23:53:04.609Z,2.10
2019-02-08T23:55:32.070Z,1.80
2019-02-08T23:57:59.570Z,1.90
